sensor_id;sensor_type;location;lat;lon;timestamp;P1;durP1;ratioP1;P2;durP2;ratioP2
20441;SDS011;10380;52.102;20.614;2022-12-31T00:02:19;25.90;;;14.73;;
20441;SDS011;10380;52.102;20.614;2022-12-31T00:04:46;25.00;;;15.37;;
20441;SDS011;10380;52.102;20.614;2022-12-31T00:07:13;23.87;;;14.37;;
20441;SDS011;10380;52.102;20.614;2022-12-31T00:09:40;23.93;;;14.50;;
20441;SDS011;10380;52.102;20.614;2022-12-31T00:12:07;23.23;;;13.47;;
20441;SDS011;10380;52.102;20.614;2022-12-31T00:14:33;23.10;;;12.90;;
20441;SDS011;10380;52.102;20.614;2022-12-31T00:17:00;24.50;;;13.37;;
20441;SDS011;10380;52.102;20.614;2022-12-31T00:19:27;19.37;;;11.80;;
20441;SDS011;10380;52.102;20.614;2022-12-31T00:21:54;20.90;;;13.07;;
20441;SDS011;10380;52.102;20.614;2022-12-31T00:24:21;21.97;;;12.10;;
20441;SDS011;10380;52.102;20.614;2022-12-31T00:26:48;20.53;;;12.57;;
20441;SDS011;10380;52.102;20.614;2022-12-31T00:29:15;23.27;;;11.43;;
20441;SDS011;10380;52.102;20.614;2022-12-31T00:31:41;20.93;;;12.63;;
20441;SDS011;10380;52.102;20.614;2022-12-31T00:34:08;20.40;;;12.47;;
20441;SDS011;10380;52.102;20.614;2022-12-31T00:36:36;18.53;;;11.00;;
20441;SDS011;10380;52.102;20.614;2022-12-31T00:39:05;23.00;;;11.60;;
20441;SDS011;10380;52.102;20.614;2022-12-31T00:41:33;20.77;;;11.90;;
20441;SDS011;10380;52.102;20.614;2022-12-31T00:44:01;21.90;;;12.87;;
20441;SDS011;10380;52.102;20.614;2022-12-31T00:46:28;16.93;;;11.10;;
20441;SDS011;10380;52.102;20.614;2022-12-31T00:48:55;17.20;;;10.07;;
20441;SDS011;10380;52.102;20.614;2022-12-31T00:51:23;22.03;;;11.40;;
20441;SDS011;10380;52.102;20.614;2022-12-31T00:53:53;21.47;;;11.73;;
20441;SDS011;10380;52.102;20.614;2022-12-31T00:56:22;22.43;;;11.57;;
20441;SDS011;10380;52.102;20.614;2022-12-31T00:58:51;22.63;;;12.97;;
20441;SDS011;10380;52.102;20.614;2022-12-31T01:01:20;20.20;;;12.20;;
20441;SDS011;10380;52.102;20.614;2022-12-31T01:03:49;16.57;;;11.73;;
20441;SDS011;10380;52.102;20.614;2022-12-31T01:06:18;19.67;;;11.67;;
20441;SDS011;10380;52.102;20.614;2022-12-31T01:08:46;20.97;;;11.53;;
20441;SDS011;10380;52.102;20.614;2022-12-31T01:11:15;21.77;;;13.07;;
20441;SDS011;10380;52.102;20.614;2022-12-31T01:14:01;18.40;;;10.57;;
20441;SDS011;10380;52.102;20.614;2022-12-31T01:16:41;19.53;;;11.53;;
20441;SDS011;10380;52.102;20.614;2022-12-31T01:19:17;18.13;;;11.97;;
20441;SDS011;10380;52.102;20.614;2022-12-31T01:21:45;17.43;;;11.20;;
20441;SDS011;10380;52.102;20.614;2022-12-31T01:24:13;18.63;;;12.20;;
20441;SDS011;10380;52.102;20.614;2022-12-31T01:26:41;22.63;;;11.67;;
20441;SDS011;10380;52.102;20.614;2022-12-31T01:29:09;18.43;;;11.07;;
20441;SDS011;10380;52.102;20.614;2022-12-31T01:31:36;18.97;;;12.33;;
20441;SDS011;10380;52.102;20.614;2022-12-31T01:34:03;17.20;;;11.73;;
20441;SDS011;10380;52.102;20.614;2022-12-31T01:36:31;21.70;;;12.17;;
20441;SDS011;10380;52.102;20.614;2022-12-31T01:39:00;18.33;;;11.63;;
20441;SDS011;10380;52.102;20.614;2022-12-31T01:41:39;17.63;;;10.33;;
20441;SDS011;10380;52.102;20.614;2022-12-31T01:46:38;14.63;;;9.60;;
20441;SDS011;10380;52.102;20.614;2022-12-31T01:51:55;15.20;;;10.40;;
20441;SDS011;10380;52.102;20.614;2022-12-31T01:54:48;17.37;;;10.83;;
20441;SDS011;10380;52.102;20.614;2022-12-31T01:57:19;18.27;;;10.50;;
20441;SDS011;10380;52.102;20.614;2022-12-31T01:59:47;15.57;;;9.60;;
20441;SDS011;10380;52.102;20.614;2022-12-31T02:02:15;14.93;;;10.00;;
20441;SDS011;10380;52.102;20.614;2022-12-31T02:04:42;14.57;;;10.07;;
20441;SDS011;10380;52.102;20.614;2022-12-31T02:07:09;18.23;;;10.77;;
20441;SDS011;10380;52.102;20.614;2022-12-31T02:09:38;16.50;;;9.87;;
20441;SDS011;10380;52.102;20.614;2022-12-31T02:12:06;17.47;;;9.97;;
20441;SDS011;10380;52.102;20.614;2022-12-31T02:14:38;14.73;;;8.63;;
20441;SDS011;10380;52.102;20.614;2022-12-31T02:31:00;16.67;;;9.60;;
20441;SDS011;10380;52.102;20.614;2022-12-31T02:33:36;13.37;;;7.17;;
20441;SDS011;10380;52.102;20.614;2022-12-31T02:36:32;14.50;;;9.87;;
20441;SDS011;10380;52.102;20.614;2022-12-31T02:39:03;19.17;;;10.63;;
20441;SDS011;10380;52.102;20.614;2022-12-31T02:41:32;17.17;;;10.23;;
20441;SDS011;10380;52.102;20.614;2022-12-31T02:44:20;17.97;;;8.63;;
20441;SDS011;10380;52.102;20.614;2022-12-31T02:52:30;21.07;;;11.67;;
20441;SDS011;10380;52.102;20.614;2022-12-31T03:01:13;23.00;;;12.00;;
20441;SDS011;10380;52.102;20.614;2022-12-31T03:04:03;17.60;;;11.53;;
20441;SDS011;10380;52.102;20.614;2022-12-31T03:06:50;13.40;;;8.53;;
20441;SDS011;10380;52.102;20.614;2022-12-31T03:09:17;19.47;;;10.57;;
20441;SDS011;10380;52.102;20.614;2022-12-31T03:11:44;20.90;;;12.93;;
20441;SDS011;10380;52.102;20.614;2022-12-31T03:14:30;19.57;;;11.50;;
20441;SDS011;10380;52.102;20.614;2022-12-31T03:16:57;18.60;;;9.50;;
20441;SDS011;10380;52.102;20.614;2022-12-31T03:19:24;19.60;;;10.70;;
20441;SDS011;10380;52.102;20.614;2022-12-31T03:22:11;19.23;;;11.97;;
20441;SDS011;10380;52.102;20.614;2022-12-31T03:25:16;14.97;;;9.43;;
20441;SDS011;10380;52.102;20.614;2022-12-31T03:28:01;18.47;;;12.60;;
20441;SDS011;10380;52.102;20.614;2022-12-31T03:30:30;18.07;;;11.30;;
20441;SDS011;10380;52.102;20.614;2022-12-31T03:32:58;15.63;;;9.13;;
20441;SDS011;10380;52.102;20.614;2022-12-31T03:35:26;19.87;;;11.77;;
20441;SDS011;10380;52.102;20.614;2022-12-31T03:37:54;16.47;;;10.87;;
20441;SDS011;10380;52.102;20.614;2022-12-31T03:40:23;22.10;;;13.20;;
20441;SDS011;10380;52.102;20.614;2022-12-31T03:42:52;20.67;;;11.70;;
20441;SDS011;10380;52.102;20.614;2022-12-31T03:45:19;23.43;;;14.27;;
20441;SDS011;10380;52.102;20.614;2022-12-31T03:47:46;19.70;;;11.30;;
20441;SDS011;10380;52.102;20.614;2022-12-31T03:50:15;17.83;;;12.10;;
20441;SDS011;10380;52.102;20.614;2022-12-31T03:52:43;22.47;;;13.33;;
20441;SDS011;10380;52.102;20.614;2022-12-31T03:55:10;21.07;;;13.83;;
20441;SDS011;10380;52.102;20.614;2022-12-31T03:57:38;24.40;;;13.97;;
20441;SDS011;10380;52.102;20.614;2022-12-31T04:00:05;20.43;;;13.03;;
20441;SDS011;10380;52.102;20.614;2022-12-31T04:02:34;25.27;;;13.77;;
20441;SDS011;10380;52.102;20.614;2022-12-31T04:05:02;21.63;;;12.80;;
20441;SDS011;10380;52.102;20.614;2022-12-31T04:07:29;23.67;;;13.93;;
20441;SDS011;10380;52.102;20.614;2022-12-31T04:09:56;19.27;;;12.43;;
20441;SDS011;10380;52.102;20.614;2022-12-31T04:12:23;23.30;;;12.67;;
20441;SDS011;10380;52.102;20.614;2022-12-31T04:14:51;22.10;;;13.53;;
20441;SDS011;10380;52.102;20.614;2022-12-31T04:17:18;21.87;;;13.20;;
20441;SDS011;10380;52.102;20.614;2022-12-31T04:19:45;19.53;;;13.43;;
20441;SDS011;10380;52.102;20.614;2022-12-31T04:22:12;18.07;;;11.97;;
20441;SDS011;10380;52.102;20.614;2022-12-31T04:24:40;19.40;;;11.90;;
20441;SDS011;10380;52.102;20.614;2022-12-31T04:27:08;21.33;;;14.37;;
20441;SDS011;10380;52.102;20.614;2022-12-31T04:29:35;21.93;;;14.20;;
20441;SDS011;10380;52.102;20.614;2022-12-31T04:32:03;22.77;;;12.67;;
20441;SDS011;10380;52.102;20.614;2022-12-31T04:34:31;20.40;;;13.03;;
20441;SDS011;10380;52.102;20.614;2022-12-31T04:36:58;21.60;;;13.53;;
20441;SDS011;10380;52.102;20.614;2022-12-31T04:39:26;22.53;;;14.30;;
20441;SDS011;10380;52.102;20.614;2022-12-31T04:41:53;23.47;;;14.03;;
20441;SDS011;10380;52.102;20.614;2022-12-31T04:44:20;22.20;;;13.03;;
20441;SDS011;10380;52.102;20.614;2022-12-31T04:46:47;23.00;;;13.17;;
20441;SDS011;10380;52.102;20.614;2022-12-31T04:49:13;20.80;;;13.60;;
20441;SDS011;10380;52.102;20.614;2022-12-31T04:51:40;18.33;;;11.17;;
20441;SDS011;10380;52.102;20.614;2022-12-31T04:54:07;21.00;;;13.43;;
20441;SDS011;10380;52.102;20.614;2022-12-31T04:56:34;22.47;;;12.23;;
20441;SDS011;10380;52.102;20.614;2022-12-31T04:59:02;18.67;;;12.20;;
20441;SDS011;10380;52.102;20.614;2022-12-31T05:01:30;20.83;;;12.63;;
20441;SDS011;10380;52.102;20.614;2022-12-31T05:03:58;21.63;;;12.43;;
20441;SDS011;10380;52.102;20.614;2022-12-31T05:06:25;19.60;;;12.10;;
20441;SDS011;10380;52.102;20.614;2022-12-31T05:08:52;18.40;;;12.33;;
20441;SDS011;10380;52.102;20.614;2022-12-31T05:11:19;17.47;;;11.13;;
20441;SDS011;10380;52.102;20.614;2022-12-31T05:13:46;21.07;;;11.40;;
20441;SDS011;10380;52.102;20.614;2022-12-31T05:16:13;18.37;;;10.80;;
20441;SDS011;10380;52.102;20.614;2022-12-31T05:18:40;15.67;;;9.60;;
20441;SDS011;10380;52.102;20.614;2022-12-31T05:21:07;15.40;;;9.33;;
20441;SDS011;10380;52.102;20.614;2022-12-31T05:23:35;16.87;;;9.50;;
20441;SDS011;10380;52.102;20.614;2022-12-31T05:26:02;18.57;;;10.53;;
20441;SDS011;10380;52.102;20.614;2022-12-31T05:28:29;18.97;;;10.83;;
20441;SDS011;10380;52.102;20.614;2022-12-31T05:30:57;18.97;;;11.57;;
20441;SDS011;10380;52.102;20.614;2022-12-31T05:33:25;21.53;;;11.13;;
20441;SDS011;10380;52.102;20.614;2022-12-31T05:35:52;17.87;;;11.43;;
20441;SDS011;10380;52.102;20.614;2022-12-31T05:38:20;14.87;;;9.67;;
20441;SDS011;10380;52.102;20.614;2022-12-31T05:40:46;20.47;;;12.37;;
20441;SDS011;10380;52.102;20.614;2022-12-31T05:43:13;22.03;;;10.40;;
20441;SDS011;10380;52.102;20.614;2022-12-31T05:45:40;18.67;;;11.07;;
20441;SDS011;10380;52.102;20.614;2022-12-31T05:48:07;21.67;;;11.50;;
20441;SDS011;10380;52.102;20.614;2022-12-31T05:50:34;18.03;;;11.40;;
20441;SDS011;10380;52.102;20.614;2022-12-31T05:53:00;18.60;;;11.90;;
20441;SDS011;10380;52.102;20.614;2022-12-31T05:55:27;18.17;;;11.53;;
20441;SDS011;10380;52.102;20.614;2022-12-31T05:57:54;17.33;;;10.63;;
20441;SDS011;10380;52.102;20.614;2022-12-31T06:00:22;20.03;;;11.77;;
20441;SDS011;10380;52.102;20.614;2022-12-31T06:02:48;19.20;;;11.53;;
20441;SDS011;10380;52.102;20.614;2022-12-31T06:05:15;17.30;;;10.77;;
20441;SDS011;10380;52.102;20.614;2022-12-31T06:07:50;18.03;;;10.90;;
20441;SDS011;10380;52.102;20.614;2022-12-31T06:10:17;15.67;;;10.07;;
20441;SDS011;10380;52.102;20.614;2022-12-31T06:12:44;17.53;;;11.57;;
20441;SDS011;10380;52.102;20.614;2022-12-31T06:15:11;18.03;;;9.53;;
20441;SDS011;10380;52.102;20.614;2022-12-31T06:17:38;16.33;;;9.50;;
20441;SDS011;10380;52.102;20.614;2022-12-31T06:20:05;18.53;;;10.40;;
20441;SDS011;10380;52.102;20.614;2022-12-31T06:22:38;20.80;;;11.23;;
20441;SDS011;10380;52.102;20.614;2022-12-31T06:25:05;19.17;;;11.03;;
20441;SDS011;10380;52.102;20.614;2022-12-31T06:27:32;20.43;;;10.73;;
20441;SDS011;10380;52.102;20.614;2022-12-31T06:29:59;16.97;;;9.07;;
20441;SDS011;10380;52.102;20.614;2022-12-31T06:32:26;14.53;;;9.57;;
20441;SDS011;10380;52.102;20.614;2022-12-31T06:34:53;14.20;;;9.17;;
20441;SDS011;10380;52.102;20.614;2022-12-31T06:37:20;16.90;;;11.20;;
20441;SDS011;10380;52.102;20.614;2022-12-31T06:39:46;16.73;;;10.17;;
20441;SDS011;10380;52.102;20.614;2022-12-31T06:42:14;15.33;;;9.37;;
20441;SDS011;10380;52.102;20.614;2022-12-31T06:44:40;14.77;;;9.73;;
20441;SDS011;10380;52.102;20.614;2022-12-31T06:47:07;19.23;;;9.97;;
20441;SDS011;10380;52.102;20.614;2022-12-31T06:49:34;17.23;;;10.27;;
20441;SDS011;10380;52.102;20.614;2022-12-31T06:52:01;19.97;;;9.90;;
20441;SDS011;10380;52.102;20.614;2022-12-31T06:54:28;17.70;;;10.20;;
20441;SDS011;10380;52.102;20.614;2022-12-31T06:56:55;15.10;;;9.13;;
20441;SDS011;10380;52.102;20.614;2022-12-31T06:59:23;14.70;;;9.27;;
20441;SDS011;10380;52.102;20.614;2022-12-31T07:07:57;16.87;;;9.43;;
20441;SDS011;10380;52.102;20.614;2022-12-31T07:10:48;14.87;;;10.23;;
20441;SDS011;10380;52.102;20.614;2022-12-31T07:21:42;15.60;;;9.07;;
20441;SDS011;10380;52.102;20.614;2022-12-31T07:24:10;13.70;;;8.77;;
20441;SDS011;10380;52.102;20.614;2022-12-31T07:37:59;10.73;;;7.43;;
20441;SDS011;10380;52.102;20.614;2022-12-31T07:42:37;12.40;;;8.37;;
20441;SDS011;10380;52.102;20.614;2022-12-31T07:45:48;13.10;;;8.10;;
20441;SDS011;10380;52.102;20.614;2022-12-31T07:48:23;13.43;;;7.70;;
20441;SDS011;10380;52.102;20.614;2022-12-31T07:50:52;13.23;;;7.50;;
20441;SDS011;10380;52.102;20.614;2022-12-31T07:53:22;13.77;;;8.10;;
20441;SDS011;10380;52.102;20.614;2022-12-31T07:55:53;11.67;;;6.80;;
20441;SDS011;10380;52.102;20.614;2022-12-31T08:01:11;12.07;;;7.80;;
20441;SDS011;10380;52.102;20.614;2022-12-31T08:08:51;8.67;;;6.07;;
20441;SDS011;10380;52.102;20.614;2022-12-31T08:11:31;11.37;;;8.03;;
20441;SDS011;10380;52.102;20.614;2022-12-31T08:14:21;12.43;;;7.53;;
20441;SDS011;10380;52.102;20.614;2022-12-31T08:16:49;10.97;;;7.60;;
20441;SDS011;10380;52.102;20.614;2022-12-31T08:19:24;12.83;;;7.70;;
20441;SDS011;10380;52.102;20.614;2022-12-31T08:21:56;13.13;;;7.23;;
20441;SDS011;10380;52.102;20.614;2022-12-31T08:24:51;9.57;;;6.47;;
20441;SDS011;10380;52.102;20.614;2022-12-31T08:30:18;11.83;;;7.90;;
20441;SDS011;10380;52.102;20.614;2022-12-31T08:32:54;12.27;;;7.53;;
20441;SDS011;10380;52.102;20.614;2022-12-31T08:38:08;13.30;;;7.37;;
20441;SDS011;10380;52.102;20.614;2022-12-31T08:43:56;10.27;;;6.47;;
20441;SDS011;10380;52.102;20.614;2022-12-31T08:46:45;12.23;;;7.30;;
20441;SDS011;10380;52.102;20.614;2022-12-31T08:49:25;11.37;;;6.67;;
20441;SDS011;10380;52.102;20.614;2022-12-31T08:51:54;11.53;;;6.97;;
20441;SDS011;10380;52.102;20.614;2022-12-31T08:54:22;11.93;;;7.10;;
20441;SDS011;10380;52.102;20.614;2022-12-31T09:08:07;9.83;;;6.30;;
20441;SDS011;10380;52.102;20.614;2022-12-31T09:10:59;10.13;;;6.13;;
20441;SDS011;10380;52.102;20.614;2022-12-31T09:13:59;7.73;;;6.07;;
20441;SDS011;10380;52.102;20.614;2022-12-31T09:16:42;9.87;;;6.10;;
20441;SDS011;10380;52.102;20.614;2022-12-31T09:19:16;10.37;;;5.43;;
20441;SDS011;10380;52.102;20.614;2022-12-31T09:21:43;9.60;;;6.43;;
20441;SDS011;10380;52.102;20.614;2022-12-31T09:24:13;10.20;;;5.67;;
20441;SDS011;10380;52.102;20.614;2022-12-31T09:26:56;9.70;;;5.80;;
20441;SDS011;10380;52.102;20.614;2022-12-31T09:30:09;8.27;;;4.90;;
20441;SDS011;10380;52.102;20.614;2022-12-31T09:32:43;8.97;;;5.73;;
20441;SDS011;10380;52.102;20.614;2022-12-31T09:49:27;7.00;;;4.97;;
20441;SDS011;10380;52.102;20.614;2022-12-31T09:57:37;7.57;;;4.10;;
20441;SDS011;10380;52.102;20.614;2022-12-31T10:00:19;6.10;;;4.87;;
20441;SDS011;10380;52.102;20.614;2022-12-31T10:11:28;7.60;;;4.67;;
20441;SDS011;10380;52.102;20.614;2022-12-31T10:14:15;7.57;;;4.97;;
20441;SDS011;10380;52.102;20.614;2022-12-31T10:26:01;6.53;;;4.40;;
20441;SDS011;10380;52.102;20.614;2022-12-31T10:36:53;7.20;;;4.00;;
20441;SDS011;10380;52.102;20.614;2022-12-31T10:40:09;7.80;;;4.53;;
20441;SDS011;10380;52.102;20.614;2022-12-31T10:53:54;6.00;;;4.43;;
20441;SDS011;10380;52.102;20.614;2022-12-31T11:00:00;7.53;;;3.97;;
20441;SDS011;10380;52.102;20.614;2022-12-31T11:14:32;6.23;;;3.70;;
20441;SDS011;10380;52.102;20.614;2022-12-31T11:16:43;5.43;;;3.47;;
20441;SDS011;10380;52.102;20.614;2022-12-31T11:36:58;5.37;;;3.47;;
20441;SDS011;10380;52.102;20.614;2022-12-31T11:39:34;5.93;;;3.60;;
20441;SDS011;10380;52.102;20.614;2022-12-31T11:44:46;5.90;;;3.43;;
20441;SDS011;10380;52.102;20.614;2022-12-31T11:47:39;6.30;;;3.60;;
20441;SDS011;10380;52.102;20.614;2022-12-31T11:50:41;5.73;;;3.70;;
20441;SDS011;10380;52.102;20.614;2022-12-31T11:56:24;5.50;;;3.67;;
20441;SDS011;10380;52.102;20.614;2022-12-31T11:58:57;5.03;;;3.60;;
20441;SDS011;10380;52.102;20.614;2022-12-31T12:04:25;4.80;;;3.17;;
20441;SDS011;10380;52.102;20.614;2022-12-31T12:06:52;5.70;;;3.55;;
20441;SDS011;10380;52.102;20.614;2022-12-31T12:09:29;8.23;;;4.70;;
20441;SDS011;10380;52.102;20.614;2022-12-31T12:12:00;4.60;;;3.70;;
20441;SDS011;10380;52.102;20.614;2022-12-31T12:14:36;4.20;;;3.10;;
20441;SDS011;10380;52.102;20.614;2022-12-31T12:17:06;6.50;;;3.83;;
20441;SDS011;10380;52.102;20.614;2022-12-31T12:19:43;4.50;;;3.40;;
20441;SDS011;10380;52.102;20.614;2022-12-31T12:22:21;4.77;;;3.50;;
20441;SDS011;10380;52.102;20.614;2022-12-31T12:25:00;4.37;;;2.87;;
20441;SDS011;10380;52.102;20.614;2022-12-31T12:27:33;5.90;;;3.90;;
20441;SDS011;10380;52.102;20.614;2022-12-31T12:30:08;3.97;;;3.10;;
20441;SDS011;10380;52.102;20.614;2022-12-31T12:32:53;4.83;;;2.87;;
20441;SDS011;10380;52.102;20.614;2022-12-31T12:35:26;6.40;;;3.70;;
20441;SDS011;10380;52.102;20.614;2022-12-31T12:38:05;3.83;;;2.80;;
20441;SDS011;10380;52.102;20.614;2022-12-31T12:40:37;4.77;;;2.90;;
20441;SDS011;10380;52.102;20.614;2022-12-31T12:43:04;5.30;;;3.37;;
20441;SDS011;10380;52.102;20.614;2022-12-31T12:45:37;4.67;;;3.67;;
20441;SDS011;10380;52.102;20.614;2022-12-31T12:48:38;6.40;;;4.10;;
20441;SDS011;10380;52.102;20.614;2022-12-31T12:51:28;5.37;;;3.60;;
20441;SDS011;10380;52.102;20.614;2022-12-31T12:54:19;6.37;;;4.10;;
20441;SDS011;10380;52.102;20.614;2022-12-31T12:59:41;7.23;;;3.80;;
20441;SDS011;10380;52.102;20.614;2022-12-31T13:02:34;4.67;;;3.47;;
20441;SDS011;10380;52.102;20.614;2022-12-31T13:11:02;4.80;;;3.57;;
20441;SDS011;10380;52.102;20.614;2022-12-31T13:19:56;5.33;;;4.00;;
20441;SDS011;10380;52.102;20.614;2022-12-31T13:22:41;7.60;;;4.47;;
20441;SDS011;10380;52.102;20.614;2022-12-31T13:28:20;5.90;;;4.30;;
20441;SDS011;10380;52.102;20.614;2022-12-31T13:31:00;6.03;;;4.30;;
20441;SDS011;10380;52.102;20.614;2022-12-31T13:33:35;6.73;;;4.50;;
20441;SDS011;10380;52.102;20.614;2022-12-31T13:36:08;5.73;;;3.80;;
20441;SDS011;10380;52.102;20.614;2022-12-31T13:38:45;6.38;;;4.25;;
20441;SDS011;10380;52.102;20.614;2022-12-31T13:44:20;5.97;;;4.00;;
20441;SDS011;10380;52.102;20.614;2022-12-31T13:47:24;4.97;;;3.57;;
20441;SDS011;10380;52.102;20.614;2022-12-31T13:57:41;4.37;;;3.67;;
20441;SDS011;10380;52.102;20.614;2022-12-31T14:00:25;7.60;;;3.90;;
20441;SDS011;10380;52.102;20.614;2022-12-31T14:03:16;8.23;;;3.87;;
20441;SDS011;10380;52.102;20.614;2022-12-31T14:06:10;8.83;;;4.17;;
20441;SDS011;10380;52.102;20.614;2022-12-31T14:08:43;5.90;;;3.60;;
20441;SDS011;10380;52.102;20.614;2022-12-31T14:14:18;6.60;;;3.73;;
20441;SDS011;10380;52.102;20.614;2022-12-31T14:24:49;6.70;;;4.77;;
20441;SDS011;10380;52.102;20.614;2022-12-31T14:27:27;5.60;;;3.60;;
20441;SDS011;10380;52.102;20.614;2022-12-31T14:30:01;5.70;;;3.77;;
20441;SDS011;10380;52.102;20.614;2022-12-31T14:38:25;5.97;;;3.60;;
20441;SDS011;10380;52.102;20.614;2022-12-31T14:52:52;6.30;;;4.10;;
20441;SDS011;10380;52.102;20.614;2022-12-31T14:55:24;6.27;;;4.03;;
20441;SDS011;10380;52.102;20.614;2022-12-31T14:57:54;5.97;;;4.40;;
20441;SDS011;10380;52.102;20.614;2022-12-31T15:00:51;7.87;;;4.37;;
20441;SDS011;10380;52.102;20.614;2022-12-31T15:08:46;5.73;;;3.27;;
20441;SDS011;10380;52.102;20.614;2022-12-31T15:11:36;5.93;;;3.77;;
20441;SDS011;10380;52.102;20.614;2022-12-31T15:17:12;5.67;;;3.37;;
20441;SDS011;10380;52.102;20.614;2022-12-31T15:25:00;5.33;;;3.53;;
20441;SDS011;10380;52.102;20.614;2022-12-31T15:27:29;6.23;;;4.07;;
20441;SDS011;10380;52.102;20.614;2022-12-31T15:30:01;6.17;;;4.20;;
20441;SDS011;10380;52.102;20.614;2022-12-31T15:35:03;5.97;;;3.80;;
20441;SDS011;10380;52.102;20.614;2022-12-31T15:40:44;8.50;;;4.50;;
20441;SDS011;10380;52.102;20.614;2022-12-31T15:45:54;4.80;;;3.97;;
20441;SDS011;10380;52.102;20.614;2022-12-31T15:48:26;7.10;;;4.07;;
20441;SDS011;10380;52.102;20.614;2022-12-31T15:51:18;7.13;;;4.00;;
20441;SDS011;10380;52.102;20.614;2022-12-31T15:53:49;5.90;;;3.93;;
20441;SDS011;10380;52.102;20.614;2022-12-31T15:56:20;6.47;;;4.00;;
20441;SDS011;10380;52.102;20.614;2022-12-31T15:58:56;4.53;;;3.60;;
20441;SDS011;10380;52.102;20.614;2022-12-31T16:01:27;6.77;;;4.00;;
20441;SDS011;10380;52.102;20.614;2022-12-31T16:04:02;5.75;;;3.28;;
20441;SDS011;10380;52.102;20.614;2022-12-31T16:06:35;4.85;;;3.50;;
20441;SDS011;10380;52.102;20.614;2022-12-31T16:09:05;5.97;;;3.77;;
20441;SDS011;10380;52.102;20.614;2022-12-31T16:11:53;7.13;;;3.10;;
20441;SDS011;10380;52.102;20.614;2022-12-31T16:14:23;6.77;;;4.10;;
20441;SDS011;10380;52.102;20.614;2022-12-31T16:16:55;6.17;;;3.93;;
20441;SDS011;10380;52.102;20.614;2022-12-31T16:22:06;6.27;;;3.83;;
20441;SDS011;10380;52.102;20.614;2022-12-31T16:24:36;7.63;;;4.17;;
20441;SDS011;10380;52.102;20.614;2022-12-31T16:27:24;7.87;;;4.37;;
20441;SDS011;10380;52.102;20.614;2022-12-31T16:29:57;6.13;;;4.23;;
20441;SDS011;10380;52.102;20.614;2022-12-31T16:32:34;8.07;;;5.10;;
20441;SDS011;10380;52.102;20.614;2022-12-31T16:38:02;7.00;;;4.47;;
20441;SDS011;10380;52.102;20.614;2022-12-31T16:40:46;7.97;;;3.67;;
20441;SDS011;10380;52.102;20.614;2022-12-31T16:43:29;6.50;;;3.58;;
20441;SDS011;10380;52.102;20.614;2022-12-31T16:46:23;6.70;;;4.40;;
20441;SDS011;10380;52.102;20.614;2022-12-31T16:48:55;5.43;;;3.83;;
20441;SDS011;10380;52.102;20.614;2022-12-31T16:51:24;8.33;;;4.70;;
20441;SDS011;10380;52.102;20.614;2022-12-31T16:53:56;7.33;;;3.90;;
20441;SDS011;10380;52.102;20.614;2022-12-31T16:56:31;7.00;;;3.60;;
20441;SDS011;10380;52.102;20.614;2022-12-31T16:59:05;9.53;;;4.23;;
20441;SDS011;10380;52.102;20.614;2022-12-31T17:01:49;7.37;;;4.77;;
20441;SDS011;10380;52.102;20.614;2022-12-31T17:04:18;5.57;;;4.20;;
20441;SDS011;10380;52.102;20.614;2022-12-31T17:06:46;6.43;;;4.10;;
20441;SDS011;10380;52.102;20.614;2022-12-31T17:09:14;5.73;;;3.60;;
20441;SDS011;10380;52.102;20.614;2022-12-31T17:11:48;6.03;;;4.50;;
20441;SDS011;10380;52.102;20.614;2022-12-31T17:14:21;6.47;;;3.30;;
20441;SDS011;10380;52.102;20.614;2022-12-31T17:17:02;6.30;;;3.67;;
20441;SDS011;10380;52.102;20.614;2022-12-31T17:19:42;6.88;;;3.80;;
20441;SDS011;10380;52.102;20.614;2022-12-31T17:24:42;5.27;;;3.70;;
20441;SDS011;10380;52.102;20.614;2022-12-31T17:27:13;7.03;;;3.58;;
20441;SDS011;10380;52.102;20.614;2022-12-31T17:29:40;7.90;;;3.43;;
20441;SDS011;10380;52.102;20.614;2022-12-31T17:32:52;6.45;;;3.17;;
20441;SDS011;10380;52.102;20.614;2022-12-31T17:35:15;7.00;;;4.43;;
20441;SDS011;10380;52.102;20.614;2022-12-31T17:37:52;5.23;;;3.60;;
20441;SDS011;10380;52.102;20.614;2022-12-31T17:40:35;6.97;;;3.47;;
20441;SDS011;10380;52.102;20.614;2022-12-31T17:43:18;5.30;;;4.03;;
20441;SDS011;10380;52.102;20.614;2022-12-31T17:45:51;6.55;;;4.93;;
20441;SDS011;10380;52.102;20.614;2022-12-31T17:48:21;6.33;;;3.90;;
20441;SDS011;10380;52.102;20.614;2022-12-31T17:50:57;5.97;;;3.90;;
20441;SDS011;10380;52.102;20.614;2022-12-31T17:53:25;5.28;;;4.15;;
20441;SDS011;10380;52.102;20.614;2022-12-31T17:55:55;6.27;;;4.10;;
20441;SDS011;10380;52.102;20.614;2022-12-31T17:58:33;6.50;;;4.13;;
20441;SDS011;10380;52.102;20.614;2022-12-31T18:01:10;8.83;;;4.87;;
20441;SDS011;10380;52.102;20.614;2022-12-31T18:03:40;6.03;;;4.10;;
20441;SDS011;10380;52.102;20.614;2022-12-31T18:06:08;6.43;;;4.10;;
20441;SDS011;10380;52.102;20.614;2022-12-31T18:08:44;5.20;;;3.57;;
20441;SDS011;10380;52.102;20.614;2022-12-31T18:13:42;6.50;;;3.40;;
20441;SDS011;10380;52.102;20.614;2022-12-31T18:16:10;7.53;;;4.40;;
20441;SDS011;10380;52.102;20.614;2022-12-31T18:18:36;6.72;;;3.88;;
20441;SDS011;10380;52.102;20.614;2022-12-31T18:21:06;8.80;;;4.00;;
20441;SDS011;10380;52.102;20.614;2022-12-31T18:23:44;7.28;;;3.75;;
20441;SDS011;10380;52.102;20.614;2022-12-31T18:26:14;6.55;;;4.75;;
20441;SDS011;10380;52.102;20.614;2022-12-31T18:28:42;7.88;;;5.25;;
20441;SDS011;10380;52.102;20.614;2022-12-31T18:31:12;6.40;;;3.92;;
20441;SDS011;10380;52.102;20.614;2022-12-31T18:33:47;6.47;;;4.07;;
20441;SDS011;10380;52.102;20.614;2022-12-31T18:36:16;8.38;;;4.85;;
20441;SDS011;10380;52.102;20.614;2022-12-31T18:38:44;11.00;;;4.45;;
20441;SDS011;10380;52.102;20.614;2022-12-31T18:41:16;8.52;;;5.20;;
20441;SDS011;10380;52.102;20.614;2022-12-31T18:43:48;6.30;;;4.17;;
20441;SDS011;10380;52.102;20.614;2022-12-31T18:46:16;5.23;;;3.90;;
20441;SDS011;10380;52.102;20.614;2022-12-31T18:48:44;5.70;;;3.95;;
20441;SDS011;10380;52.102;20.614;2022-12-31T18:51:12;6.70;;;4.27;;
20441;SDS011;10380;52.102;20.614;2022-12-31T18:53:44;6.60;;;3.97;;
20441;SDS011;10380;52.102;20.614;2022-12-31T18:56:13;7.93;;;4.30;;
20441;SDS011;10380;52.102;20.614;2022-12-31T18:58:41;7.50;;;4.82;;
20441;SDS011;10380;52.102;20.614;2022-12-31T19:03:55;9.05;;;4.90;;
20441;SDS011;10380;52.102;20.614;2022-12-31T19:06:23;7.10;;;4.17;;
20441;SDS011;10380;52.102;20.614;2022-12-31T19:08:50;7.75;;;4.03;;
20441;SDS011;10380;52.102;20.614;2022-12-31T19:11:17;12.60;;;4.87;;
20441;SDS011;10380;52.102;20.614;2022-12-31T19:13:45;12.02;;;5.82;;
20441;SDS011;10380;52.102;20.614;2022-12-31T19:16:13;6.75;;;4.15;;
20441;SDS011;10380;52.102;20.614;2022-12-31T19:18:41;8.55;;;4.97;;
20441;SDS011;10380;52.102;20.614;2022-12-31T19:21:15;9.40;;;5.30;;
20441;SDS011;10380;52.102;20.614;2022-12-31T19:23:48;7.40;;;4.80;;
20441;SDS011;10380;52.102;20.614;2022-12-31T19:26:16;7.47;;;4.50;;
20441;SDS011;10380;52.102;20.614;2022-12-31T19:28:45;8.70;;;4.80;;
20441;SDS011;10380;52.102;20.614;2022-12-31T19:31:13;6.00;;;3.90;;
20441;SDS011;10380;52.102;20.614;2022-12-31T19:33:41;6.87;;;4.23;;
20441;SDS011;10380;52.102;20.614;2022-12-31T19:36:18;7.97;;;5.10;;